createdAt,value
2023-02-05T00:00:11.902Z,4.43
2023-02-05T00:05:13.576Z,4.10
2023-02-05T00:10:18.460Z,4.50
2023-02-05T00:15:20.135Z,3.90
2023-02-05T00:20:21.904Z,4.47
2023-02-05T00:25:23.502Z,4.00
2023-02-05T00:30:25.090Z,4.03
2023-02-05T00:35:26.682Z,4.47
2023-02-05T00:40:29.452Z,4.40
2023-02-05T00:45:35.279Z,4.17
2023-02-05T00:50:37.393Z,4.43
2023-02-05T00:55:39.014Z,4.67
2023-02-05T01:00:40.647Z,4.77
2023-02-05T01:05:43.077Z,4.20
2023-02-05T01:10:47.370Z,5.00
2023-02-05T01:15:49.458Z,3.93
2023-02-05T01:20:51.956Z,3.83
2023-02-05T01:25:53.639Z,4.03
2023-02-05T01:30:55.401Z,3.60
2023-02-05T01:35:57.081Z,3.90
2023-02-05T01:41:00.026Z,4.37
2023-02-05T01:46:24.092Z,3.67
2023-02-05T01:51:30.276Z,4.13
2023-02-05T01:56:55.787Z,4.10
2023-02-05T02:02:00.885Z,4.00
2023-02-05T02:07:04.097Z,4.37
2023-02-05T02:12:06.805Z,4.07
2023-02-05T02:17:10.933Z,4.07
2023-02-05T02:22:34.733Z,4.00
2023-02-05T02:27:45.830Z,4.37
2023-02-05T02:32:58.295Z,4.40
2023-02-05T02:38:20.877Z,4.40
2023-02-05T02:43:32.152Z,5.13
2023-02-05T02:48:37.945Z,4.30
2023-02-05T02:53:45.202Z,4.50
2023-02-05T02:59:09.292Z,3.53
2023-02-05T03:04:21.947Z,3.50
2023-02-05T03:09:39.322Z,3.53
2023-02-05T03:14:42.258Z,3.37
2023-02-05T03:19:46.672Z,3.17
2023-02-05T03:24:48.275Z,3.40
2023-02-05T03:29:50.500Z,3.73
2023-02-05T03:35:03.074Z,3.47
2023-02-05T03:40:31.460Z,4.10
2023-02-05T03:45:40.994Z,3.70
2023-02-05T03:50:55.754Z,3.80
2023-02-05T03:56:13.551Z,3.37
2023-02-05T04:01:15.615Z,3.63
2023-02-05T04:06:19.095Z,3.40
2023-02-05T04:11:23.063Z,4.10
2023-02-05T04:16:25.849Z,4.10
2023-02-05T04:21:28.998Z,3.53
2023-02-05T04:26:30.751Z,3.50
2023-02-05T04:31:37.584Z,3.70
2023-02-05T04:36:40.210Z,3.60
2023-02-05T04:41:42.510Z,3.70
2023-02-05T04:46:44.185Z,3.77
2023-02-05T04:51:45.861Z,3.93
2023-02-05T04:56:47.495Z,3.57
2023-02-05T05:01:49.135Z,4.10
2023-02-05T05:06:50.801Z,3.90
2023-02-05T05:11:53.194Z,4.00
2023-02-05T05:16:54.799Z,4.10
2023-02-05T05:21:56.412Z,3.20
2023-02-05T05:26:59.402Z,3.87
2023-02-05T05:32:01.076Z,3.87
2023-02-05T05:37:02.732Z,3.83
2023-02-05T05:42:24.043Z,3.90
2023-02-05T05:47:25.698Z,3.83
2023-02-05T05:52:27.312Z,4.00
2023-02-05T05:57:29.035Z,3.90
2023-02-05T06:02:30.662Z,3.90
2023-02-05T06:07:32.318Z,3.60
2023-02-05T06:12:33.919Z,4.17
2023-02-05T06:17:35.610Z,4.20
2023-02-05T06:22:37.283Z,4.23
2023-02-05T06:27:38.920Z,3.73
2023-02-05T06:32:40.510Z,4.03
2023-02-05T06:37:49.245Z,4.57
2023-02-05T06:42:52.883Z,4.37
2023-02-05T06:47:56.070Z,4.53
2023-02-05T06:52:58.273Z,4.53
2023-02-05T06:57:59.957Z,4.17
2023-02-05T07:03:01.778Z,4.93
2023-02-05T07:08:04.186Z,5.67
2023-02-05T07:13:06.115Z,5.27
2023-02-05T07:18:07.848Z,4.97
2023-02-05T07:23:09.519Z,5.47
2023-02-05T07:28:11.302Z,5.43
2023-02-05T07:33:13.036Z,7.13
2023-02-05T07:38:14.685Z,6.77
2023-02-05T07:43:16.342Z,9.63
2023-02-05T07:48:17.931Z,9.80
2023-02-05T07:53:19.969Z,11.47
2023-02-05T07:58:21.869Z,14.10
2023-02-05T08:03:23.509Z,13.97
2023-02-05T08:08:25.177Z,12.60
2023-02-05T08:13:26.817Z,12.73
2023-02-05T08:18:28.401Z,12.63
2023-02-05T08:23:30.238Z,10.93
2023-02-05T08:28:31.834Z,18.30
2023-02-05T08:33:33.430Z,15.37
2023-02-05T08:38:35.092Z,11.67
2023-02-05T08:43:36.688Z,12.03
2023-02-05T08:48:38.421Z,11.97
2023-02-05T08:53:40.597Z,11.40
2023-02-05T08:58:42.536Z,11.57
2023-02-05T09:03:45.030Z,12.00
2023-02-05T09:08:47.015Z,10.20
2023-02-05T09:13:48.849Z,12.45
2023-02-05T09:18:50.812Z,11.55
2023-02-05T09:23:53.806Z,10.55
2023-02-05T09:28:55.466Z,10.77
2023-02-05T09:33:57.357Z,10.52
2023-02-05T09:39:12.967Z,9.98
2023-02-05T09:44:35.703Z,9.13
2023-02-05T09:50:03.685Z,8.63
2023-02-05T09:55:20.902Z,7.75
2023-02-05T10:00:32.306Z,8.05
2023-02-05T10:05:47.224Z,8.30
2023-02-05T10:10:53.614Z,8.52
2023-02-05T10:16:28.028Z,9.05
2023-02-05T10:21:58.021Z,9.73
2023-02-05T10:27:26.411Z,9.75
2023-02-05T10:32:44.940Z,9.27
2023-02-05T10:37:56.964Z,9.75
2023-02-05T10:43:19.436Z,9.27
2023-02-05T10:49:04.182Z,8.63
2023-02-05T10:54:06.273Z,9.45
2023-02-05T10:59:20.793Z,8.73
2023-02-05T11:04:34.925Z,9.82
2023-02-05T11:09:36.590Z,9.23
2023-02-05T11:14:43.621Z,10.15
2023-02-05T11:19:56.412Z,10.38
2023-02-05T11:25:13.659Z,9.77
2023-02-05T11:30:52.077Z,9.85
2023-02-05T11:35:54.610Z,9.40
2023-02-05T11:41:03.201Z,9.98
2023-02-05T11:46:08.484Z,10.10
2023-02-05T11:51:15.266Z,9.52
2023-02-05T11:56:25.092Z,11.40
2023-02-05T12:01:30.600Z,11.32
2023-02-05T12:06:40.815Z,11.32
2023-02-05T12:12:06.752Z,10.70
2023-02-05T12:17:23.577Z,11.55
2023-02-05T12:22:39.723Z,11.15
2023-02-05T12:28:26.303Z,10.68
2023-02-05T12:34:10.107Z,11.10
2023-02-05T12:39:29.855Z,9.60
2023-02-05T12:44:40.742Z,10.73
2023-02-05T12:50:10.611Z,11.50
2023-02-05T12:55:31.906Z,11.10
2023-02-05T13:00:51.708Z,10.77
2023-02-05T13:06:00.774Z,11.02
2023-02-05T13:11:10.598Z,11.93
2023-02-05T13:16:16.344Z,12.52
2023-02-05T13:21:38.657Z,11.82
2023-02-05T13:27:03.090Z,12.88
2023-02-05T13:32:15.677Z,12.18
2023-02-05T13:37:29.982Z,12.32
2023-02-05T13:42:49.495Z,11.63
2023-02-05T13:47:54.105Z,12.15
2023-02-05T13:53:06.179Z,12.75
2023-02-05T13:58:24.285Z,12.48
2023-02-05T14:03:33.732Z,12.38
2023-02-05T14:08:38.835Z,11.90
2023-02-05T14:13:40.550Z,12.32
2023-02-05T14:18:44.953Z,12.60
2023-02-05T14:23:46.526Z,11.88
2023-02-05T14:28:50.689Z,12.23
2023-02-05T14:33:52.333Z,11.73
2023-02-05T14:39:00.932Z,11.93
2023-02-05T14:44:18.031Z,11.82
2023-02-05T14:49:26.867Z,11.45
2023-02-05T14:54:41.613Z,12.13
2023-02-05T14:59:56.070Z,12.30
2023-02-05T15:04:58.834Z,10.88
2023-02-05T15:10:06.817Z,11.40
2023-02-05T15:15:28.606Z,11.90
2023-02-05T15:20:33.803Z,10.45
2023-02-05T15:25:47.256Z,11.27
2023-02-05T15:31:12.433Z,10.40
2023-02-05T15:36:35.993Z,10.25
2023-02-05T15:41:41.899Z,10.27
2023-02-05T15:46:44.089Z,9.65
2023-02-05T15:51:47.893Z,9.90
2023-02-05T15:56:52.655Z,10.10
2023-02-05T16:02:16.472Z,10.02
2023-02-05T16:07:27.422Z,9.77
2023-02-05T16:12:31.343Z,9.27
2023-02-05T16:17:39.993Z,8.10
2023-02-05T16:22:52.512Z,8.37
2023-02-05T16:27:57.864Z,8.40
2023-02-05T16:33:03.481Z,7.60
2023-02-05T16:38:09.620Z,7.90
2023-02-05T16:43:28.737Z,7.80
2023-02-05T16:48:31.828Z,6.33
2023-02-05T16:53:36.823Z,6.47
2023-02-05T16:58:45.606Z,6.33
2023-02-05T17:03:50.090Z,6.10
2023-02-05T17:08:55.360Z,6.83
2023-02-05T17:14:32.980Z,7.27
2023-02-05T17:19:34.644Z,7.80
2023-02-05T17:24:36.250Z,6.57
2023-02-05T17:29:37.941Z,7.60
2023-02-05T17:34:39.557Z,6.30
2023-02-05T17:39:41.286Z,6.83
2023-02-05T17:44:42.874Z,7.77
2023-02-05T17:49:44.560Z,8.33
2023-02-05T17:54:46.487Z,9.50
2023-02-05T17:59:49.076Z,9.43
2023-02-05T18:04:50.692Z,9.30
2023-02-05T18:09:52.374Z,9.63
2023-02-05T18:14:54.614Z,9.20
2023-02-05T18:19:56.236Z,9.93
2023-02-05T18:24:57.864Z,11.20
2023-02-05T18:29:59.519Z,10.17
2023-02-05T18:35:01.131Z,11.53
2023-02-05T18:40:02.775Z,9.77
2023-02-05T18:45:04.688Z,10.53
2023-02-05T18:50:08.320Z,9.73
2023-02-05T18:55:12.474Z,10.07
2023-02-05T19:00:14.542Z,10.43
2023-02-05T19:05:16.136Z,11.53
2023-02-05T19:10:18.548Z,11.07
2023-02-05T19:15:20.206Z,12.07
2023-02-05T19:20:21.776Z,12.90
2023-02-05T19:25:24.026Z,14.70
2023-02-05T19:30:25.619Z,13.73
2023-02-05T19:35:27.217Z,13.50
2023-02-05T19:40:28.801Z,13.67
2023-02-05T19:45:30.524Z,13.03
2023-02-05T19:50:32.152Z,13.97
2023-02-05T19:55:34.136Z,14.90
2023-02-05T20:00:35.935Z,14.17
2023-02-05T20:05:37.727Z,16.07
2023-02-05T20:10:39.337Z,15.60
2023-02-05T20:15:41.022Z,15.23
2023-02-05T20:20:42.659Z,19.07
2023-02-05T20:25:52.393Z,18.30
2023-02-05T20:31:12.667Z,16.53
2023-02-05T20:36:14.287Z,16.43
2023-02-05T20:41:18.171Z,13.87
2023-02-05T20:46:20.091Z,13.67
2023-02-05T20:51:23.177Z,14.40
2023-02-05T20:56:27.267Z,14.07
2023-02-05T21:01:30.520Z,14.50
2023-02-05T21:06:34.794Z,14.17
2023-02-05T21:11:37.396Z,13.67
2023-02-05T21:16:40.346Z,13.50
2023-02-05T21:21:42.224Z,14.33
2023-02-05T21:26:46.331Z,13.70
2023-02-05T21:31:55.825Z,14.17
2023-02-05T21:36:57.796Z,14.03
2023-02-05T21:41:59.408Z,13.33
2023-02-05T21:47:01.037Z,14.10
2023-02-05T21:52:02.622Z,16.03
2023-02-05T21:57:04.353Z,16.73
2023-02-05T22:02:06.504Z,17.40
2023-02-05T22:07:08.219Z,14.77
2023-02-05T22:12:09.858Z,15.60
2023-02-05T22:17:11.448Z,15.37
2023-02-05T22:22:13.076Z,15.60
2023-02-05T22:27:14.712Z,16.33
2023-02-05T22:32:16.321Z,16.23
2023-02-05T22:37:17.937Z,16.97
2023-02-05T22:42:19.542Z,17.63
2023-02-05T22:47:21.155Z,17.73
2023-02-05T22:52:22.776Z,18.43
2023-02-05T22:57:24.483Z,19.13
2023-02-05T23:02:26.096Z,19.73
2023-02-05T23:07:27.850Z,21.63
2023-02-05T23:12:29.471Z,21.13
2023-02-05T23:17:31.139Z,21.90
2023-02-05T23:22:32.808Z,22.73
2023-02-05T23:27:34.580Z,22.60
2023-02-05T23:32:36.253Z,23.63
2023-02-05T23:37:37.906Z,24.30
2023-02-05T23:42:39.505Z,24.07
2023-02-05T23:47:41.149Z,24.13
2023-02-05T23:52:42.833Z,24.70
2023-02-05T23:57:44.507Z,25.50
